sensor_id;sensor_type;location;lat;lon;timestamp;temperature;humidity
24800;DHT22;12897;50.812;4.430;2022-12-11T00:00:28;3.80;99.90
24800;DHT22;12897;50.812;4.430;2022-12-11T00:02:56;3.80;99.90
24800;DHT22;12897;50.812;4.430;2022-12-11T00:05:24;3.70;99.90
24800;DHT22;12897;50.812;4.430;2022-12-11T00:07:51;3.60;99.90
24800;DHT22;12897;50.812;4.430;2022-12-11T00:10:19;3.20;99.90
24800;DHT22;12897;50.812;4.430;2022-12-11T00:12:46;3.40;99.90
24800;DHT22;12897;50.812;4.430;2022-12-11T00:15:14;3.50;99.90
24800;DHT22;12897;50.812;4.430;2022-12-11T00:17:41;3.50;99.90
24800;DHT22;12897;50.812;4.430;2022-12-11T00:20:09;3.40;99.90
24800;DHT22;12897;50.812;4.430;2022-12-11T00:22:37;3.50;99.90
24800;DHT22;12897;50.812;4.430;2022-12-11T00:25:04;3.70;99.90
24800;DHT22;12897;50.812;4.430;2022-12-11T00:27:32;3.70;99.90
24800;DHT22;12897;50.812;4.430;2022-12-11T00:30:00;3.60;99.90
24800;DHT22;12897;50.812;4.430;2022-12-11T00:32:28;3.70;99.90
24800;DHT22;12897;50.812;4.430;2022-12-11T00:34:57;3.60;99.90
24800;DHT22;12897;50.812;4.430;2022-12-11T00:37:25;3.60;99.90
24800;DHT22;12897;50.812;4.430;2022-12-11T00:39:52;3.60;99.90
24800;DHT22;12897;50.812;4.430;2022-12-11T00:42:20;3.60;99.90
24800;DHT22;12897;50.812;4.430;2022-12-11T00:44:47;3.60;99.90
24800;DHT22;12897;50.812;4.430;2022-12-11T00:47:16;3.60;99.90
24800;DHT22;12897;50.812;4.430;2022-12-11T00:49:43;3.60;99.90
24800;DHT22;12897;50.812;4.430;2022-12-11T00:52:11;3.70;99.90
24800;DHT22;12897;50.812;4.430;2022-12-11T00:54:38;3.80;99.90
24800;DHT22;12897;50.812;4.430;2022-12-11T00:57:06;4.00;99.90
24800;DHT22;12897;50.812;4.430;2022-12-11T00:59:33;3.90;99.90
24800;DHT22;12897;50.812;4.430;2022-12-11T01:02:01;3.90;99.90
24800;DHT22;12897;50.812;4.430;2022-12-11T01:04:28;3.90;99.90
24800;DHT22;12897;50.812;4.430;2022-12-11T01:06:56;3.90;99.90
24800;DHT22;12897;50.812;4.430;2022-12-11T01:09:23;3.70;99.90
24800;DHT22;12897;50.812;4.430;2022-12-11T01:12:09;3.70;99.90
24800;DHT22;12897;50.812;4.430;2022-12-11T01:14:36;3.80;99.90
24800;DHT22;12897;50.812;4.430;2022-12-11T01:17:04;3.70;99.90
24800;DHT22;12897;50.812;4.430;2022-12-11T01:19:31;3.60;99.90
24800;DHT22;12897;50.812;4.430;2022-12-11T01:21:59;3.60;99.90
24800;DHT22;12897;50.812;4.430;2022-12-11T01:24:27;3.60;99.90
24800;DHT22;12897;50.812;4.430;2022-12-11T01:26:54;3.60;99.90
24800;DHT22;12897;50.812;4.430;2022-12-11T01:29:23;3.80;99.90
24800;DHT22;12897;50.812;4.430;2022-12-11T01:31:51;3.80;99.90
24800;DHT22;12897;50.812;4.430;2022-12-11T01:34:18;3.90;99.90
24800;DHT22;12897;50.812;4.430;2022-12-11T01:36:46;4.00;99.90
24800;DHT22;12897;50.812;4.430;2022-12-11T01:39:13;4.00;99.90
24800;DHT22;12897;50.812;4.430;2022-12-11T01:41:41;4.00;99.90
24800;DHT22;12897;50.812;4.430;2022-12-11T01:46:42;4.20;99.90
24800;DHT22;12897;50.812;4.430;2022-12-11T01:49:11;4.30;99.90
24800;DHT22;12897;50.812;4.430;2022-12-11T01:51:43;4.20;99.90
24800;DHT22;12897;50.812;4.430;2022-12-11T01:54:12;4.10;99.90
24800;DHT22;12897;50.812;4.430;2022-12-11T01:56:42;4.00;99.90
24800;DHT22;12897;50.812;4.430;2022-12-11T01:59:11;4.00;99.90
24800;DHT22;12897;50.812;4.430;2022-12-11T02:02:05;3.80;99.90
24800;DHT22;12897;50.812;4.430;2022-12-11T02:04:36;3.90;99.90
24800;DHT22;12897;50.812;4.430;2022-12-11T02:07:04;4.00;99.90
24800;DHT22;12897;50.812;4.430;2022-12-11T02:09:34;4.00;99.90
24800;DHT22;12897;50.812;4.430;2022-12-11T02:12:19;3.90;99.90
24800;DHT22;12897;50.812;4.430;2022-12-11T02:15:11;3.90;99.90
24800;DHT22;12897;50.812;4.430;2022-12-11T02:17:47;3.80;99.90
24800;DHT22;12897;50.812;4.430;2022-12-11T02:28:46;4.10;99.90
24800;DHT22;12897;50.812;4.430;2022-12-11T02:34:25;4.00;99.90
24800;DHT22;12897;50.812;4.430;2022-12-11T02:36:54;3.90;99.90
24800;DHT22;12897;50.812;4.430;2022-12-11T02:39:24;4.00;99.90
24800;DHT22;12897;50.812;4.430;2022-12-11T02:41:53;3.80;99.90
24800;DHT22;12897;50.812;4.430;2022-12-11T02:44:25;3.80;99.90
24800;DHT22;12897;50.812;4.430;2022-12-11T02:46:52;3.70;99.90
24800;DHT22;12897;50.812;4.430;2022-12-11T02:49:22;3.70;99.90
24800;DHT22;12897;50.812;4.430;2022-12-11T02:51:51;3.90;99.90
24800;DHT22;12897;50.812;4.430;2022-12-11T02:54:27;4.10;99.90
24800;DHT22;12897;50.812;4.430;2022-12-11T02:56:56;4.00;99.90
24800;DHT22;12897;50.812;4.430;2022-12-11T02:59:27;4.00;99.90
24800;DHT22;12897;50.812;4.430;2022-12-11T03:01:54;3.80;99.90
24800;DHT22;12897;50.812;4.430;2022-12-11T03:04:22;3.70;99.90
24800;DHT22;12897;50.812;4.430;2022-12-11T03:06:52;3.70;99.90
24800;DHT22;12897;50.812;4.430;2022-12-11T03:09:20;3.80;99.90
24800;DHT22;12897;50.812;4.430;2022-12-11T03:11:48;3.90;99.90
24800;DHT22;12897;50.812;4.430;2022-12-11T03:14:15;4.10;99.90
24800;DHT22;12897;50.812;4.430;2022-12-11T03:17:04;4.30;99.90
24800;DHT22;12897;50.812;4.430;2022-12-11T03:19:32;4.40;99.90
24800;DHT22;12897;50.812;4.430;2022-12-11T03:25:07;4.30;99.90
24800;DHT22;12897;50.812;4.430;2022-12-11T03:27:41;4.00;99.90
24800;DHT22;12897;50.812;4.430;2022-12-11T03:30:17;4.00;99.90
24800;DHT22;12897;50.812;4.430;2022-12-11T03:32:57;4.00;99.90
24800;DHT22;12897;50.812;4.430;2022-12-11T03:35:38;4.20;99.90
24800;DHT22;12897;50.812;4.430;2022-12-11T03:38:12;4.00;99.90
24800;DHT22;12897;50.812;4.430;2022-12-11T03:40:42;3.90;99.90
24800;DHT22;12897;50.812;4.430;2022-12-11T03:43:10;3.70;99.90
24800;DHT22;12897;50.812;4.430;2022-12-11T03:45:39;3.70;99.90
24800;DHT22;12897;50.812;4.430;2022-12-11T03:48:09;3.80;99.90
24800;DHT22;12897;50.812;4.430;2022-12-11T03:50:39;3.70;99.90
24800;DHT22;12897;50.812;4.430;2022-12-11T03:53:07;3.60;99.90
24800;DHT22;12897;50.812;4.430;2022-12-11T03:55:36;3.50;99.90
24800;DHT22;12897;50.812;4.430;2022-12-11T03:58:04;3.60;99.90
24800;DHT22;12897;50.812;4.430;2022-12-11T04:00:32;3.70;99.90
24800;DHT22;12897;50.812;4.430;2022-12-11T04:03:00;3.80;99.90
24800;DHT22;12897;50.812;4.430;2022-12-11T04:05:41;3.60;99.90
24800;DHT22;12897;50.812;4.430;2022-12-11T04:08:10;3.70;99.90
24800;DHT22;12897;50.812;4.430;2022-12-11T04:10:38;3.80;99.90
24800;DHT22;12897;50.812;4.430;2022-12-11T04:13:06;3.80;99.90
24800;DHT22;12897;50.812;4.430;2022-12-11T04:15:34;3.60;99.90
24800;DHT22;12897;50.812;4.430;2022-12-11T04:18:02;3.70;99.90
24800;DHT22;12897;50.812;4.430;2022-12-11T04:20:48;3.70;99.90
24800;DHT22;12897;50.812;4.430;2022-12-11T04:23:33;3.80;99.90
24800;DHT22;12897;50.812;4.430;2022-12-11T04:26:19;3.90;99.90
24800;DHT22;12897;50.812;4.430;2022-12-11T04:28:48;3.70;99.90
24800;DHT22;12897;50.812;4.430;2022-12-11T04:31:18;3.80;99.90
24800;DHT22;12897;50.812;4.430;2022-12-11T04:33:45;3.70;99.90
24800;DHT22;12897;50.812;4.430;2022-12-11T04:36:14;3.80;99.90
24800;DHT22;12897;50.812;4.430;2022-12-11T04:38:42;4.00;99.90
24800;DHT22;12897;50.812;4.430;2022-12-11T04:41:12;4.10;99.90
24800;DHT22;12897;50.812;4.430;2022-12-11T04:43:40;4.10;99.90
24800;DHT22;12897;50.812;4.430;2022-12-11T04:46:15;4.10;99.90
24800;DHT22;12897;50.812;4.430;2022-12-11T04:48:41;4.00;99.90
24800;DHT22;12897;50.812;4.430;2022-12-11T04:51:09;3.90;99.90
24800;DHT22;12897;50.812;4.430;2022-12-11T04:53:37;3.70;99.90
24800;DHT22;12897;50.812;4.430;2022-12-11T04:56:06;3.60;99.90
24800;DHT22;12897;50.812;4.430;2022-12-11T04:58:34;3.60;99.90
24800;DHT22;12897;50.812;4.430;2022-12-11T05:01:11;3.60;99.90
24800;DHT22;12897;50.812;4.430;2022-12-11T05:03:39;3.60;99.90
24800;DHT22;12897;50.812;4.430;2022-12-11T05:06:08;3.60;99.90
24800;DHT22;12897;50.812;4.430;2022-12-11T05:08:37;3.60;99.90
24800;DHT22;12897;50.812;4.430;2022-12-11T05:11:08;3.70;99.90
24800;DHT22;12897;50.812;4.430;2022-12-11T05:13:34;3.90;99.90
24800;DHT22;12897;50.812;4.430;2022-12-11T05:16:05;3.90;99.90
24800;DHT22;12897;50.812;4.430;2022-12-11T05:18:33;4.00;99.90
24800;DHT22;12897;50.812;4.430;2022-12-11T05:21:04;4.10;99.90
24800;DHT22;12897;50.812;4.430;2022-12-11T05:23:32;4.00;99.90
24800;DHT22;12897;50.812;4.430;2022-12-11T05:26:03;4.00;99.90
24800;DHT22;12897;50.812;4.430;2022-12-11T05:28:33;3.90;99.90
24800;DHT22;12897;50.812;4.430;2022-12-11T05:31:04;3.90;99.90
24800;DHT22;12897;50.812;4.430;2022-12-11T05:33:32;4.10;99.90
24800;DHT22;12897;50.812;4.430;2022-12-11T05:35:59;4.10;99.90
24800;DHT22;12897;50.812;4.430;2022-12-11T05:38:27;4.10;99.90
24800;DHT22;12897;50.812;4.430;2022-12-11T05:43:47;4.10;99.90
24800;DHT22;12897;50.812;4.430;2022-12-11T05:46:21;4.10;99.90
24800;DHT22;12897;50.812;4.430;2022-12-11T05:48:54;4.10;99.90
24800;DHT22;12897;50.812;4.430;2022-12-11T05:51:22;4.20;99.90
24800;DHT22;12897;50.812;4.430;2022-12-11T05:53:54;4.40;99.90
24800;DHT22;12897;50.812;4.430;2022-12-11T05:56:31;4.20;99.90
24800;DHT22;12897;50.812;4.430;2022-12-11T05:59:18;4.00;99.90
24800;DHT22;12897;50.812;4.430;2022-12-11T06:01:45;3.80;99.90
24800;DHT22;12897;50.812;4.430;2022-12-11T06:04:13;3.70;99.90
24800;DHT22;12897;50.812;4.430;2022-12-11T06:06:41;3.70;99.90
24800;DHT22;12897;50.812;4.430;2022-12-11T06:09:14;3.70;99.90
24800;DHT22;12897;50.812;4.430;2022-12-11T06:11:41;3.70;99.90
24800;DHT22;12897;50.812;4.430;2022-12-11T06:14:09;3.60;99.90
24800;DHT22;12897;50.812;4.430;2022-12-11T06:16:38;3.60;99.90
24800;DHT22;12897;50.812;4.430;2022-12-11T06:19:06;3.40;99.90
24800;DHT22;12897;50.812;4.430;2022-12-11T06:21:35;3.50;99.90
24800;DHT22;12897;50.812;4.430;2022-12-11T06:24:03;3.60;99.90
24800;DHT22;12897;50.812;4.430;2022-12-11T06:26:31;3.70;99.90
24800;DHT22;12897;50.812;4.430;2022-12-11T06:28:59;3.80;99.90
24800;DHT22;12897;50.812;4.430;2022-12-11T06:31:26;4.00;99.90
24800;DHT22;12897;50.812;4.430;2022-12-11T06:33:54;3.80;99.90
24800;DHT22;12897;50.812;4.430;2022-12-11T06:36:23;3.90;99.90
24800;DHT22;12897;50.812;4.430;2022-12-11T06:38:51;3.80;99.90
24800;DHT22;12897;50.812;4.430;2022-12-11T06:41:19;3.90;99.90
24800;DHT22;12897;50.812;4.430;2022-12-11T06:43:47;3.90;99.90
24800;DHT22;12897;50.812;4.430;2022-12-11T06:46:16;4.00;99.90
24800;DHT22;12897;50.812;4.430;2022-12-11T06:48:45;3.80;99.90
24800;DHT22;12897;50.812;4.430;2022-12-11T06:51:15;3.80;99.90
24800;DHT22;12897;50.812;4.430;2022-12-11T06:53:43;3.60;99.90
24800;DHT22;12897;50.812;4.430;2022-12-11T06:56:13;3.70;99.90
24800;DHT22;12897;50.812;4.430;2022-12-11T06:58:42;3.90;99.90
24800;DHT22;12897;50.812;4.430;2022-12-11T07:01:15;4.00;99.90
24800;DHT22;12897;50.812;4.430;2022-12-11T07:03:43;4.00;99.90
24800;DHT22;12897;50.812;4.430;2022-12-11T07:06:11;3.80;99.90
24800;DHT22;12897;50.812;4.430;2022-12-11T07:08:39;3.70;99.90
24800;DHT22;12897;50.812;4.430;2022-12-11T07:11:12;3.70;99.90
24800;DHT22;12897;50.812;4.430;2022-12-11T07:13:40;3.50;99.90
24800;DHT22;12897;50.812;4.430;2022-12-11T07:16:09;3.40;99.90
24800;DHT22;12897;50.812;4.430;2022-12-11T07:18:44;3.30;99.90
24800;DHT22;12897;50.812;4.430;2022-12-11T07:21:08;3.40;99.90
24800;DHT22;12897;50.812;4.430;2022-12-11T07:23:36;3.30;99.90
24800;DHT22;12897;50.812;4.430;2022-12-11T07:26:10;3.30;99.90
24800;DHT22;12897;50.812;4.430;2022-12-11T07:28:38;3.40;99.90
24800;DHT22;12897;50.812;4.430;2022-12-11T07:31:08;3.60;99.90
24800;DHT22;12897;50.812;4.430;2022-12-11T07:33:35;3.80;99.90
24800;DHT22;12897;50.812;4.430;2022-12-11T07:36:04;4.00;99.90
24800;DHT22;12897;50.812;4.430;2022-12-11T07:38:32;4.00;99.90
24800;DHT22;12897;50.812;4.430;2022-12-11T07:41:07;3.90;99.90
24800;DHT22;12897;50.812;4.430;2022-12-11T07:43:31;3.60;99.90
24800;DHT22;12897;50.812;4.430;2022-12-11T07:46:03;3.50;99.90
24800;DHT22;12897;50.812;4.430;2022-12-11T07:48:33;3.50;99.90
24800;DHT22;12897;50.812;4.430;2022-12-11T07:51:24;3.60;99.90
24800;DHT22;12897;50.812;4.430;2022-12-11T07:53:57;3.50;99.90
24800;DHT22;12897;50.812;4.430;2022-12-11T07:56:26;3.60;99.90
24800;DHT22;12897;50.812;4.430;2022-12-11T07:58:54;3.60;99.90
24800;DHT22;12897;50.812;4.430;2022-12-11T08:01:24;3.50;99.90
24800;DHT22;12897;50.812;4.430;2022-12-11T08:03:53;3.30;99.90
24800;DHT22;12897;50.812;4.430;2022-12-11T08:06:28;3.20;99.90
24800;DHT22;12897;50.812;4.430;2022-12-11T08:08:58;3.20;99.90
24800;DHT22;12897;50.812;4.430;2022-12-11T08:11:26;3.20;99.90
24800;DHT22;12897;50.812;4.430;2022-12-11T08:14:13;3.30;99.90
24800;DHT22;12897;50.812;4.430;2022-12-11T08:16:41;3.40;99.90
24800;DHT22;12897;50.812;4.430;2022-12-11T08:19:11;3.50;99.90
24800;DHT22;12897;50.812;4.430;2022-12-11T08:21:39;3.60;99.90
24800;DHT22;12897;50.812;4.430;2022-12-11T08:24:09;3.80;99.90
24800;DHT22;12897;50.812;4.430;2022-12-11T08:26:36;3.90;99.90
24800;DHT22;12897;50.812;4.430;2022-12-11T08:29:04;3.80;99.90
24800;DHT22;12897;50.812;4.430;2022-12-11T08:31:32;3.70;99.90
24800;DHT22;12897;50.812;4.430;2022-12-11T08:34:00;3.80;99.90
24800;DHT22;12897;50.812;4.430;2022-12-11T08:36:27;4.00;99.90
24800;DHT22;12897;50.812;4.430;2022-12-11T08:38:55;4.00;99.90
24800;DHT22;12897;50.812;4.430;2022-12-11T08:41:25;3.70;99.90
24800;DHT22;12897;50.812;4.430;2022-12-11T08:44:10;3.60;99.90
24800;DHT22;12897;50.812;4.430;2022-12-11T08:46:38;3.60;99.90
24800;DHT22;12897;50.812;4.430;2022-12-11T08:49:06;3.50;99.90
24800;DHT22;12897;50.812;4.430;2022-12-11T08:51:33;3.30;99.90
24800;DHT22;12897;50.812;4.430;2022-12-11T08:54:08;3.60;99.90
24800;DHT22;12897;50.812;4.430;2022-12-11T08:56:36;3.90;99.90
24800;DHT22;12897;50.812;4.430;2022-12-11T08:59:03;4.00;99.90
24800;DHT22;12897;50.812;4.430;2022-12-11T09:01:31;3.90;99.90
24800;DHT22;12897;50.812;4.430;2022-12-11T09:03:59;3.60;99.90
24800;DHT22;12897;50.812;4.430;2022-12-11T09:06:28;3.40;99.90
24800;DHT22;12897;50.812;4.430;2022-12-11T09:08:59;3.30;99.90
24800;DHT22;12897;50.812;4.430;2022-12-11T09:11:29;3.50;99.90
24800;DHT22;12897;50.812;4.430;2022-12-11T09:13:57;3.60;99.90
24800;DHT22;12897;50.812;4.430;2022-12-11T09:16:30;3.70;99.90
24800;DHT22;12897;50.812;4.430;2022-12-11T09:18:58;4.00;99.90
24800;DHT22;12897;50.812;4.430;2022-12-11T09:21:28;3.80;99.90
24800;DHT22;12897;50.812;4.430;2022-12-11T09:23:58;3.70;99.90
24800;DHT22;12897;50.812;4.430;2022-12-11T09:26:27;3.60;99.90
24800;DHT22;12897;50.812;4.430;2022-12-11T09:28:56;3.70;99.90
24800;DHT22;12897;50.812;4.430;2022-12-11T09:31:28;3.60;99.90
24800;DHT22;12897;50.812;4.430;2022-12-11T09:33:58;3.50;99.90
24800;DHT22;12897;50.812;4.430;2022-12-11T09:36:27;3.50;99.90
24800;DHT22;12897;50.812;4.430;2022-12-11T09:38:55;3.30;99.90
24800;DHT22;12897;50.812;4.430;2022-12-11T09:44:40;3.10;99.90
24800;DHT22;12897;50.812;4.430;2022-12-11T09:47:20;3.40;99.90
24800;DHT22;12897;50.812;4.430;2022-12-11T09:49:55;3.60;99.90
24800;DHT22;12897;50.812;4.430;2022-12-11T09:52:30;3.90;99.90
24800;DHT22;12897;50.812;4.430;2022-12-11T09:54:58;3.90;99.90
24800;DHT22;12897;50.812;4.430;2022-12-11T10:00:20;3.70;99.90
24800;DHT22;12897;50.812;4.430;2022-12-11T10:13:59;4.30;99.90
24800;DHT22;12897;50.812;4.430;2022-12-11T10:16:34;4.40;99.90
24800;DHT22;12897;50.812;4.430;2022-12-11T10:19:03;4.50;99.90
24800;DHT22;12897;50.812;4.430;2022-12-11T10:21:37;4.30;99.90
24800;DHT22;12897;50.812;4.430;2022-12-11T10:24:03;4.30;99.90
24800;DHT22;12897;50.812;4.430;2022-12-11T10:26:32;4.20;99.90
24800;DHT22;12897;50.812;4.430;2022-12-11T10:29:00;4.30;99.90
24800;DHT22;12897;50.812;4.430;2022-12-11T10:31:37;4.30;99.90
24800;DHT22;12897;50.812;4.430;2022-12-11T10:34:11;4.50;99.90
24800;DHT22;12897;50.812;4.430;2022-12-11T10:36:40;4.50;99.90
24800;DHT22;12897;50.812;4.430;2022-12-11T10:39:17;4.20;99.90
24800;DHT22;12897;50.812;4.430;2022-12-11T10:41:46;4.30;99.90
24800;DHT22;12897;50.812;4.430;2022-12-11T10:44:17;4.20;99.90
24800;DHT22;12897;50.812;4.430;2022-12-11T10:47:00;4.20;99.90
24800;DHT22;12897;50.812;4.430;2022-12-11T10:49:26;4.20;99.90
24800;DHT22;12897;50.812;4.430;2022-12-11T10:51:57;4.30;99.90
24800;DHT22;12897;50.812;4.430;2022-12-11T10:57:00;4.50;99.90
24800;DHT22;12897;50.812;4.430;2022-12-11T11:04:57;4.90;99.90
24800;DHT22;12897;50.812;4.430;2022-12-11T11:07:27;5.10;99.90
24800;DHT22;12897;50.812;4.430;2022-12-11T11:12:36;5.10;99.90
24800;DHT22;12897;50.812;4.430;2022-12-11T11:15:06;5.10;99.90
24800;DHT22;12897;50.812;4.430;2022-12-11T11:17:41;5.10;99.90
24800;DHT22;12897;50.812;4.430;2022-12-11T11:20:11;5.10;99.90
24800;DHT22;12897;50.812;4.430;2022-12-11T11:22:38;4.80;99.90
24800;DHT22;12897;50.812;4.430;2022-12-11T11:25:14;4.50;99.90
24800;DHT22;12897;50.812;4.430;2022-12-11T11:27:47;4.50;99.90
24800;DHT22;12897;50.812;4.430;2022-12-11T11:30:25;4.40;99.90
24800;DHT22;12897;50.812;4.430;2022-12-11T11:33:01;4.50;99.90
24800;DHT22;12897;50.812;4.430;2022-12-11T11:35:27;4.40;99.90
24800;DHT22;12897;50.812;4.430;2022-12-11T11:38:03;4.40;99.90
24800;DHT22;12897;50.812;4.430;2022-12-11T11:40:36;4.40;99.90
24800;DHT22;12897;50.812;4.430;2022-12-11T11:43:27;4.40;99.90
24800;DHT22;12897;50.812;4.430;2022-12-11T11:48:52;4.50;99.90
24800;DHT22;12897;50.812;4.430;2022-12-11T11:51:39;4.40;99.90
24800;DHT22;12897;50.812;4.430;2022-12-11T11:56:56;4.40;99.90
24800;DHT22;12897;50.812;4.430;2022-12-11T11:59:38;4.50;99.90
24800;DHT22;12897;50.812;4.430;2022-12-11T12:02:12;4.30;99.90
24800;DHT22;12897;50.812;4.430;2022-12-11T12:04:35;4.40;99.90
24800;DHT22;12897;50.812;4.430;2022-12-11T12:07:23;4.60;99.90
24800;DHT22;12897;50.812;4.430;2022-12-11T12:10:05;4.60;99.90
24800;DHT22;12897;50.812;4.430;2022-12-11T12:18:21;4.60;99.90
24800;DHT22;12897;50.812;4.430;2022-12-11T12:20:52;4.80;99.90
24800;DHT22;12897;50.812;4.430;2022-12-11T12:26:27;5.00;99.90
24800;DHT22;12897;50.812;4.430;2022-12-11T12:31:43;5.20;99.90
24800;DHT22;12897;50.812;4.430;2022-12-11T12:34:35;5.10;99.90
24800;DHT22;12897;50.812;4.430;2022-12-11T12:43:02;5.00;99.90
24800;DHT22;12897;50.812;4.430;2022-12-11T12:48:01;5.00;99.90
24800;DHT22;12897;50.812;4.430;2022-12-11T12:50:35;4.90;99.90
24800;DHT22;12897;50.812;4.430;2022-12-11T12:52:59;4.90;99.90
24800;DHT22;12897;50.812;4.430;2022-12-11T12:55:28;4.80;99.90
24800;DHT22;12897;50.812;4.430;2022-12-11T12:57:59;4.70;99.90
24800;DHT22;12897;50.812;4.430;2022-12-11T13:02:56;4.60;99.90
24800;DHT22;12897;50.812;4.430;2022-12-11T13:05:26;4.60;99.90
24800;DHT22;12897;50.812;4.430;2022-12-11T13:07:57;4.60;99.90
24800;DHT22;12897;50.812;4.430;2022-12-11T13:10:38;4.50;99.90
24800;DHT22;12897;50.812;4.430;2022-12-11T13:13:03;4.50;99.90
24800;DHT22;12897;50.812;4.430;2022-12-11T13:15:41;4.60;99.90
24800;DHT22;12897;50.812;4.430;2022-12-11T13:20:59;5.00;99.90
24800;DHT22;12897;50.812;4.430;2022-12-11T13:23:32;5.00;99.90
24800;DHT22;12897;50.812;4.430;2022-12-11T13:26:02;4.90;99.90
24800;DHT22;12897;50.812;4.430;2022-12-11T13:31:04;4.90;99.90
24800;DHT22;12897;50.812;4.430;2022-12-11T13:33:36;4.70;99.90
24800;DHT22;12897;50.812;4.430;2022-12-11T13:38:45;4.50;99.90
24800;DHT22;12897;50.812;4.430;2022-12-11T13:41:14;4.60;99.90
24800;DHT22;12897;50.812;4.430;2022-12-11T13:43:43;4.60;99.90
24800;DHT22;12897;50.812;4.430;2022-12-11T13:46:13;4.70;99.90
24800;DHT22;12897;50.812;4.430;2022-12-11T13:48:49;4.70;99.90
24800;DHT22;12897;50.812;4.430;2022-12-11T13:51:22;4.70;99.90
24800;DHT22;12897;50.812;4.430;2022-12-11T13:56:37;4.70;99.90
24800;DHT22;12897;50.812;4.430;2022-12-11T13:59:23;4.70;99.90
24800;DHT22;12897;50.812;4.430;2022-12-11T14:01:34;4.80;99.90
24800;DHT22;12897;50.812;4.430;2022-12-11T14:04:08;4.80;99.90
24800;DHT22;12897;50.812;4.430;2022-12-11T14:06:34;4.70;99.90
24800;DHT22;12897;50.812;4.430;2022-12-11T14:09:04;4.60;99.90
24800;DHT22;12897;50.812;4.430;2022-12-11T14:11:39;4.70;99.90
24800;DHT22;12897;50.812;4.430;2022-12-11T14:14:54;4.70;99.90
24800;DHT22;12897;50.812;4.430;2022-12-11T14:16:37;4.80;99.90
24800;DHT22;12897;50.812;4.430;2022-12-11T14:19:08;4.80;99.90
24800;DHT22;12897;50.812;4.430;2022-12-11T14:22:00;4.60;99.90
24800;DHT22;12897;50.812;4.430;2022-12-11T14:24:24;4.70;99.90
24800;DHT22;12897;50.812;4.430;2022-12-11T14:26:53;4.60;99.90
24800;DHT22;12897;50.812;4.430;2022-12-11T14:29:31;4.50;99.90
24800;DHT22;12897;50.812;4.430;2022-12-11T14:32:04;4.70;99.90
24800;DHT22;12897;50.812;4.430;2022-12-11T14:34:43;4.60;99.90
24800;DHT22;12897;50.812;4.430;2022-12-11T14:37:13;4.70;99.90
24800;DHT22;12897;50.812;4.430;2022-12-11T14:39:59;4.60;99.90
24800;DHT22;12897;50.812;4.430;2022-12-11T14:42:30;4.40;99.90
24800;DHT22;12897;50.812;4.430;2022-12-11T14:45:15;4.50;99.90
24800;DHT22;12897;50.812;4.430;2022-12-11T14:47:42;4.50;99.90
24800;DHT22;12897;50.812;4.430;2022-12-11T14:50:18;4.50;99.90
24800;DHT22;12897;50.812;4.430;2022-12-11T14:52:52;4.50;99.90
24800;DHT22;12897;50.812;4.430;2022-12-11T14:55:21;4.50;99.90
24800;DHT22;12897;50.812;4.430;2022-12-11T14:57:51;4.50;99.90
24800;DHT22;12897;50.812;4.430;2022-12-11T15:00:31;4.50;99.90
24800;DHT22;12897;50.812;4.430;2022-12-11T15:03:06;4.50;99.90
24800;DHT22;12897;50.812;4.430;2022-12-11T15:05:34;4.60;99.90
24800;DHT22;12897;50.812;4.430;2022-12-11T15:13:24;4.50;99.90
24800;DHT22;12897;50.812;4.430;2022-12-11T15:15:52;4.50;99.90
24800;DHT22;12897;50.812;4.430;2022-12-11T15:18:23;4.50;99.90
24800;DHT22;12897;50.812;4.430;2022-12-11T15:20:52;4.40;99.90
24800;DHT22;12897;50.812;4.430;2022-12-11T15:23:21;4.50;99.90
24800;DHT22;12897;50.812;4.430;2022-12-11T15:25:57;4.60;99.90
24800;DHT22;12897;50.812;4.430;2022-12-11T15:28:33;4.50;99.90
24800;DHT22;12897;50.812;4.430;2022-12-11T15:31:21;4.50;99.90
24800;DHT22;12897;50.812;4.430;2022-12-11T15:33:32;4.50;99.90
24800;DHT22;12897;50.812;4.430;2022-12-11T15:36:05;4.60;99.90
24800;DHT22;12897;50.812;4.430;2022-12-11T15:38:38;4.60;99.90
24800;DHT22;12897;50.812;4.430;2022-12-11T15:41:16;4.60;99.90
24800;DHT22;12897;50.812;4.430;2022-12-11T15:43:46;4.50;99.90
24800;DHT22;12897;50.812;4.430;2022-12-11T15:46:14;4.40;99.90
24800;DHT22;12897;50.812;4.430;2022-12-11T15:48:41;4.50;99.90
24800;DHT22;12897;50.812;4.430;2022-12-11T15:51:09;4.40;99.90
24800;DHT22;12897;50.812;4.430;2022-12-11T15:53:37;4.40;99.90
24800;DHT22;12897;50.812;4.430;2022-12-11T15:56:05;4.50;99.90
24800;DHT22;12897;50.812;4.430;2022-12-11T15:58:32;4.50;99.90
24800;DHT22;12897;50.812;4.430;2022-12-11T16:01:01;4.60;99.90
24800;DHT22;12897;50.812;4.430;2022-12-11T16:03:28;4.50;99.90
24800;DHT22;12897;50.812;4.430;2022-12-11T16:05:56;4.40;99.90
24800;DHT22;12897;50.812;4.430;2022-12-11T16:08:24;4.30;99.90
24800;DHT22;12897;50.812;4.430;2022-12-11T16:10:53;4.40;99.90
24800;DHT22;12897;50.812;4.430;2022-12-11T16:13:21;4.30;99.90
24800;DHT22;12897;50.812;4.430;2022-12-11T16:15:50;4.30;99.90
24800;DHT22;12897;50.812;4.430;2022-12-11T16:18:21;4.30;99.90
24800;DHT22;12897;50.812;4.430;2022-12-11T16:20:50;4.30;99.90
24800;DHT22;12897;50.812;4.430;2022-12-11T16:23:18;4.40;99.90
24800;DHT22;12897;50.812;4.430;2022-12-11T16:25:46;4.40;99.90
24800;DHT22;12897;50.812;4.430;2022-12-11T16:28:15;4.40;99.90
24800;DHT22;12897;50.812;4.430;2022-12-11T16:30:43;4.40;99.90
24800;DHT22;12897;50.812;4.430;2022-12-11T16:33:12;4.40;99.90
24800;DHT22;12897;50.812;4.430;2022-12-11T16:35:40;4.30;99.90
24800;DHT22;12897;50.812;4.430;2022-12-11T16:38:08;4.30;99.90
24800;DHT22;12897;50.812;4.430;2022-12-11T16:40:37;4.40;99.90
24800;DHT22;12897;50.812;4.430;2022-12-11T16:43:05;4.40;99.90
24800;DHT22;12897;50.812;4.430;2022-12-11T16:45:32;4.40;99.90
24800;DHT22;12897;50.812;4.430;2022-12-11T16:48:03;4.50;99.90
24800;DHT22;12897;50.812;4.430;2022-12-11T16:50:31;4.40;99.90
24800;DHT22;12897;50.812;4.430;2022-12-11T16:52:59;4.40;99.90
24800;DHT22;12897;50.812;4.430;2022-12-11T16:55:26;4.30;99.90
24800;DHT22;12897;50.812;4.430;2022-12-11T16:57:54;4.30;99.90
24800;DHT22;12897;50.812;4.430;2022-12-11T17:00:21;4.20;99.90
24800;DHT22;12897;50.812;4.430;2022-12-11T17:02:49;4.30;99.90
24800;DHT22;12897;50.812;4.430;2022-12-11T17:05:17;4.30;99.90
24800;DHT22;12897;50.812;4.430;2022-12-11T17:07:45;4.20;99.90
24800;DHT22;12897;50.812;4.430;2022-12-11T17:10:12;4.10;99.90
24800;DHT22;12897;50.812;4.430;2022-12-11T17:12:41;3.90;99.90
24800;DHT22;12897;50.812;4.430;2022-12-11T17:15:09;3.60;99.90
24800;DHT22;12897;50.812;4.430;2022-12-11T17:17:36;3.60;99.90
24800;DHT22;12897;50.812;4.430;2022-12-11T17:20:04;3.50;99.90
24800;DHT22;12897;50.812;4.430;2022-12-11T17:22:32;3.60;99.90
24800;DHT22;12897;50.812;4.430;2022-12-11T17:24:59;3.60;99.90
24800;DHT22;12897;50.812;4.430;2022-12-11T17:27:27;3.50;99.90
24800;DHT22;12897;50.812;4.430;2022-12-11T17:29:54;3.50;99.90
24800;DHT22;12897;50.812;4.430;2022-12-11T17:32:22;3.40;99.90
24800;DHT22;12897;50.812;4.430;2022-12-11T17:34:49;3.40;99.90
24800;DHT22;12897;50.812;4.430;2022-12-11T17:37:18;3.40;99.90